Time;durP1;ratioP1;P1;durP2;ratioP2;P2;SDS_P1;SDS_P2;PMS_P1;PMS_P2;Temp;Humidity;BMP_temperature;BMP_pressure;BME280_temperature;BME280_humidity;BME280_pressure;Samples;Min_cycle;Max_cycle;Signal;HPM_P1;HPM_P2
2021/04/27 00:01:15;;;;;;;1999.90;999.90;;;;;;;7.52;63.83;-18110.19;4959065;29;20331;-29
2021/04/27 00:04:04;;;;;;;1999.90;999.90;;;;;;;7.51;64.51;-18110.03;4961065;29;20775;-29
2021/04/27 00:06:50;;;;;;;1999.90;999.90;;;;;;;7.43;64.41;-18107.78;4958962;29;20650;-29
2021/04/27 00:09:37;;;;;;;1999.90;999.90;;;;;;;7.29;64.85;-18104.00;4961309;28;20609;-29
2021/04/27 00:12:23;;;;;;;1999.90;999.90;;;;;;;7.36;64.37;-18105.91;4968469;29;20199;-29
2021/04/27 00:15:15;;;;;;;1999.90;999.90;;;;;;;7.41;64.03;-18107.22;4962717;29;20199;-29
2021/04/27 00:18:04;;;;;;;1999.90;999.90;;;;;;;7.29;63.94;-18104.00;4962746;29;20204;-29
2021/04/27 00:20:52;;;;;;;1999.90;999.90;;;;;;;7.36;63.39;-18105.91;4963454;29;20232;-29
2021/04/27 00:23:38;;;;;;;1999.90;999.90;;;;;;;7.39;63.70;-18106.84;4962276;29;20196;-29
2021/04/27 00:26:24;;;;;;;1999.90;999.90;;;;;;;7.30;64.89;-18104.41;4961991;29;20204;-29
2021/04/27 00:29:13;;;;;;;1999.90;999.90;;;;;;;7.25;62.96;-18103.22;4965213;29;20208;-29
2021/04/27 00:31:59;;;;;;;1999.90;999.90;;;;;;;7.23;63.67;-18102.53;4963036;29;20204;-29
2021/04/27 00:34:47;;;;;;;1999.90;999.90;;;;;;;7.23;63.93;-18102.53;4962669;29;20492;-29
2021/04/27 00:37:37;;;;;;;1999.90;999.90;;;;;;;7.28;63.40;-18103.88;4962511;29;20203;-29
2021/04/27 00:40:23;;;;;;;1999.90;999.90;;;;;;;7.16;64.19;-18100.66;4962369;29;20220;-29
2021/04/27 00:43:08;;;;;;;1999.90;999.90;;;;;;;7.09;64.90;-18098.78;4963346;29;20351;-29
2021/04/27 00:45:54;;;;;;;1999.90;999.90;;;;;;;7.01;65.12;-18096.78;4962699;29;20613;-29
2021/04/27 00:48:41;;;;;;;1999.90;999.90;;;;;;;6.98;65.38;-18095.97;4963545;29;20203;-29
2021/04/27 00:51:35;;;;;;;1999.90;999.90;;;;;;;7.03;65.13;-18097.31;4962085;29;20578;-29
2021/04/27 00:54:21;;;;;;;1999.90;999.90;;;;;;;6.97;65.06;-18095.56;4962201;29;20243;-29
2021/04/27 00:57:08;;;;;;;1999.90;999.90;;;;;;;7.01;65.01;-18096.63;4965129;29;20204;-29
2021/04/27 00:59:55;;;;;;;1999.90;999.90;;;;;;;7.01;65.04;-18096.78;4961962;29;20219;-29
2021/04/27 01:02:41;;;;;;;1999.90;999.90;;;;;;;6.91;65.01;-18094.09;4962070;29;20244;-29
2021/04/27 01:05:36;;;;;;;1999.90;999.90;;;;;;;6.91;65.07;-18094.22;4961868;29;20204;-29
2021/04/27 01:08:29;;;;;;;1999.90;999.90;;;;;;;6.83;66.16;-18092.09;4961867;29;20240;-29
2021/04/27 01:11:27;;;;;;;1999.90;999.90;;;;;;;6.75;66.48;-18089.81;4966057;29;20197;-29
2021/04/27 01:14:24;;;;;;;1999.90;999.90;;;;;;;6.74;66.55;-18089.53;4961595;29;20607;-29
2021/04/27 01:17:11;;;;;;;1999.90;999.90;;;;;;;6.59;66.69;-18085.66;4961332;29;20274;-28
2021/04/27 01:20:09;;;;;;;1999.90;999.90;;;;;;;6.70;67.20;-18088.47;4960491;28;20207;-31
2021/04/27 01:23:29;;;;;;;1999.90;999.90;;;;;;;6.60;67.32;-18085.91;4960787;29;20200;-30
2021/04/27 01:26:27;;;;;;;1999.90;999.90;;;;;;;6.50;66.58;-18083.38;4963114;29;20203;-28
2021/04/27 01:29:21;;;;;;;1999.90;999.90;;;;;;;6.42;68.40;-18081.22;4961985;29;20208;-31
2021/04/27 01:32:10;;;;;;;1999.90;999.90;;;;;;;6.32;67.87;-18078.53;4961229;29;20203;-30
2021/04/27 01:35:00;;;;;;;1999.90;999.90;;;;;;;6.35;67.85;-18079.22;4959780;29;20212;-32
2021/04/27 01:37:47;;;;;;;1999.90;999.90;;;;;;;6.31;68.53;-18078.28;4960904;29;20488;-30
2021/04/27 01:40:33;;;;;;;1999.90;999.90;;;;;;;6.12;68.00;-18073.31;4963492;29;20383;-31
2021/04/27 01:43:21;;;;;;;1999.90;999.90;;;;;;;6.20;69.23;-18075.31;4962275;29;20212;-31
2021/04/27 01:46:16;;;;;;;1999.90;999.90;;;;;;;6.17;69.08;-18074.66;4961205;29;20222;-31
2021/04/27 01:49:02;;;;;;;1999.90;999.90;;;;;;;6.08;69.30;-18072.09;4960895;29;20211;-31
2021/04/27 01:51:50;;;;;;;1999.90;999.90;;;;;;;6.05;69.67;-18071.44;4961642;29;20211;-30
2021/04/27 01:54:36;;;;;;;1999.90;999.90;;;;;;;5.93;69.61;-18068.22;4960495;29;20255;-30
2021/04/27 01:57:23;;;;;;;1999.90;999.90;;;;;;;6.03;69.46;-18070.75;4963700;29;20211;-31
2021/04/27 02:00:12;;;;;;;1999.90;999.90;;;;;;;6.00;70.29;-18069.94;4961892;29;20510;-31
2021/04/27 02:02:59;;;;;;;1999.90;999.90;;;;;;;5.87;69.66;-18066.72;4961109;29;20507;-31
2021/04/27 02:05:44;;;;;;;1999.90;999.90;;;;;;;5.85;69.65;-18066.19;4960792;29;20206;-31
2021/04/27 02:08:30;;;;;;;1999.90;999.90;;;;;;;5.91;70.43;-18067.53;4960457;29;20621;-30
2021/04/27 02:11:20;;;;;;;1999.90;999.90;;;;;;;5.84;70.28;-18065.78;4963817;29;20506;-30
2021/04/27 02:14:07;;;;;;;1999.90;999.90;;;;;;;5.74;70.63;-18063.25;4960587;29;20463;-30
2021/04/27 02:16:59;;;;;;;1999.90;999.90;;;;;;;5.69;71.35;-18061.91;4961282;29;20298;-30
2021/04/27 02:19:47;;;;;;;1999.90;999.90;;;;;;;5.69;71.04;-18061.91;4960384;29;20610;-30
2021/04/27 02:22:34;;;;;;;1999.90;999.90;;;;;;;5.64;70.96;-18060.56;4959999;29;21063;-30
2021/04/27 02:25:22;;;;;;;1999.90;999.90;;;;;;;5.63;71.96;-18060.28;4960057;29;20882;-30
2021/04/27 02:28:09;;;;;;;1999.90;999.90;;;;;;;5.55;71.56;-18058.13;4963918;29;20594;-30
2021/04/27 02:30:59;;;;;;;1999.90;999.90;;;;;;;5.59;72.02;-18059.06;4960469;29;20551;-29
2021/04/27 02:33:45;;;;;;;1999.90;999.90;;;;;;;5.56;72.34;-18058.41;4959699;29;20444;-30
2021/04/27 02:36:31;;;;;;;1999.90;999.90;;;;;;;5.48;72.17;-18056.25;4960296;29;20203;-30
2021/04/27 02:39:18;;;;;;;1999.90;999.90;;;;;;;5.43;72.87;-18054.91;4960029;29;20447;-30
2021/04/27 02:42:04;;;;;;;1999.90;999.90;;;;;;;5.35;72.48;-18052.78;4962515;29;20925;-30
2021/04/27 02:44:53;;;;;;;1999.90;999.90;;;;;;;5.29;72.14;-18051.16;4960177;29;20452;-30
2021/04/27 02:47:42;;;;;;;1999.90;999.90;;;;;;;5.32;72.13;-18051.97;4960858;29;20464;-30
2021/04/27 02:50:28;;;;;;;1999.90;999.90;;;;;;;5.30;72.17;-18051.56;4960385;29;20557;-30
2021/04/27 02:53:15;;;;;;;1999.90;999.90;;;;;;;5.30;72.75;-18051.56;4962128;29;20590;-30
2021/04/27 02:56:01;;;;;;;1999.90;999.90;;;;;;;5.26;72.59;-18050.34;4961646;29;20526;-30
2021/04/27 02:58:47;;;;;;;1999.90;999.90;;;;;;;5.22;72.49;-18049.41;4959909;29;20511;-30
2021/04/27 03:01:33;;;;;;;1999.90;999.90;;;;;;;5.26;72.84;-18050.34;4959746;29;20486;-30
2021/04/27 03:04:19;;;;;;;1999.90;999.90;;;;;;;5.23;72.76;-18049.53;4959731;29;20576;-30
2021/04/27 03:07:06;;;;;;;1999.90;999.90;;;;;;;5.22;72.47;-18049.28;4962292;29;20452;-30
2021/04/27 03:09:54;;;;;;;1999.90;999.90;;;;;;;5.21;71.75;-18049.13;4964297;29;20543;-30
2021/04/27 03:12:41;;;;;;;1999.90;999.90;;;;;;;5.12;73.30;-18046.72;4959780;29;20447;-30
2021/04/27 03:15:46;;;;;;;1999.90;999.90;;;;;;;5.12;73.47;-18046.72;4959561;29;20491;-30
2021/04/27 03:18:39;;;;;;;1999.90;999.90;;;;;;;5.08;72.92;-18045.78;4959147;29;20844;-29
2021/04/27 03:21:28;;;;;;;1999.90;999.90;;;;;;;4.98;73.87;-18043.09;4959024;29;20487;-30
2021/04/27 03:24:15;;;;;;;1999.90;999.90;;;;;;;4.99;74.32;-18043.38;4966055;29;20954;-30
2021/04/27 03:27:01;;;;;;;1999.90;999.90;;;;;;;4.93;74.36;-18041.63;4960700;29;20459;-31
2021/04/27 03:29:47;;;;;;;1999.90;999.90;;;;;;;4.87;74.49;-18040.16;4959157;29;20459;-30
2021/04/27 03:32:32;;;;;;;1999.90;999.90;;;;;;;4.88;74.15;-18040.41;4959172;29;20511;-30
2021/04/27 03:35:18;;;;;;;1999.90;999.90;;;;;;;4.92;74.29;-18041.34;4959378;29;20451;-30
2021/04/27 03:38:04;;;;;;;1999.90;999.90;;;;;;;4.84;74.90;-18039.34;4959482;29;20607;-30
2021/04/27 03:40:51;;;;;;;1999.90;999.90;;;;;;;4.81;74.97;-18038.53;4964635;29;20527;-30
2021/04/27 03:43:36;;;;;;;1999.90;999.90;;;;;;;4.72;74.59;-18036.25;4960995;28;20547;-30
2021/04/27 03:46:22;;;;;;;1999.90;999.90;;;;;;;4.75;75.04;-18036.94;4963919;29;20791;-30
2021/04/27 03:49:08;;;;;;;1999.90;999.90;;;;;;;4.78;75.36;-18037.88;4962974;29;20446;-30
2021/04/27 03:51:54;;;;;;;1999.90;999.90;;;;;;;4.70;74.62;-18035.59;4963275;29;20843;-30
2021/04/27 03:54:40;;;;;;;1999.90;999.90;;;;;;;4.67;74.37;-18034.78;4966288;29;20587;-30
2021/04/27 03:57:27;;;;;;;1999.90;999.90;;;;;;;4.64;74.95;-18033.97;4965540;29;20455;-30
2021/04/27 04:00:14;;;;;;;1999.90;999.90;;;;;;;4.68;75.37;-18035.03;4963098;29;20791;-30
2021/04/27 04:03:03;;;;;;;1999.90;999.90;;;;;;;4.65;74.48;-18034.38;4963157;29;20904;-30
2021/04/27 04:05:49;;;;;;;1999.90;999.90;;;;;;;4.73;74.68;-18036.38;4964534;29;20446;-30
2021/04/27 04:08:35;;;;;;;1999.90;999.90;;;;;;;4.70;74.58;-18035.59;4968327;29;20507;-30
2021/04/27 04:11:22;;;;;;;1999.90;999.90;;;;;;;4.64;74.06;-18034.09;4963211;29;20531;-30
2021/04/27 04:14:08;;;;;;;1999.90;999.90;;;;;;;4.72;73.32;-18036.13;4963114;29;20880;-30
2021/04/27 04:16:54;;;;;;;1999.90;999.90;;;;;;;4.63;74.64;-18033.84;4962983;29;20514;-29
2021/04/27 04:19:40;;;;;;;1999.90;999.90;;;;;;;4.60;73.71;-18033.03;4962984;29;20519;-29
2021/04/27 04:22:26;;;;;;;1999.90;999.90;;;;;;;4.76;72.99;-18037.31;4967357;29;20605;-29
2021/04/27 04:25:13;;;;;;;1999.90;999.90;;;;;;;4.71;72.72;-18035.84;4963851;29;20455;-29
2021/04/27 04:28:00;;;;;;;1999.90;999.90;;;;;;;4.72;72.74;-18036.13;4963407;29;20466;-29
2021/04/27 04:30:47;;;;;;;1999.90;999.90;;;;;;;4.79;73.23;-18038.00;4962568;29;20454;-29
2021/04/27 04:33:33;;;;;;;1999.90;999.90;;;;;;;4.64;72.96;-18033.97;4962516;29;20451;-29
2021/04/27 04:36:19;;;;;;;1999.90;999.90;;;;;;;4.65;73.21;-18034.25;4967349;29;20452;-29
2021/04/27 04:39:05;;;;;;;1999.90;999.90;;;;;;;4.72;72.47;-18036.13;4962014;29;20538;-29
2021/04/27 04:41:51;;;;;;;1999.90;999.90;;;;;;;4.75;72.53;-18036.94;4962103;29;20499;-29
2021/04/27 04:44:37;;;;;;;1999.90;999.90;;;;;;;4.68;72.12;-18035.19;4962243;29;20479;-29
2021/04/27 04:47:23;;;;;;;1999.90;999.90;;;;;;;4.80;72.15;-18038.41;4961364;29;20569;-29
2021/04/27 04:50:13;;;;;;;1999.90;999.90;;;;;;;4.88;71.73;-18040.28;4961631;29;20455;-29
2021/04/27 04:52:59;;;;;;;1999.90;999.90;;;;;;;4.64;72.51;-18033.97;4967599;29;20467;-29
2021/04/27 04:55:44;;;;;;;1999.90;999.90;;;;;;;4.74;72.44;-18036.66;4961801;28;20558;-29
2021/04/27 04:58:34;;;;;;;1999.90;999.90;;;;;;;4.75;72.28;-18037.06;4962185;29;20607;-29
2021/04/27 05:01:19;;;;;;;1999.90;999.90;;;;;;;4.80;72.56;-18038.41;4963509;29;20614;-29
2021/04/27 05:04:07;;;;;;;1999.90;999.90;;;;;;;4.83;72.48;-18039.06;4965544;29;20472;-29
2021/04/27 05:06:58;;;;;;;1999.90;999.90;;;;;;;4.93;71.39;-18041.63;4961778;29;20466;-29
2021/04/27 05:09:44;;;;;;;1999.90;999.90;;;;;;;4.89;71.69;-18040.56;4961657;29;20523;-29
2021/04/27 05:12:30;;;;;;;1999.90;999.90;;;;;;;5.16;70.30;-18047.94;4961337;29;20734;-29
2021/04/27 05:15:19;;;;;;;1999.90;999.90;;;;;;;5.16;70.30;-18047.94;4962287;29;20448;-29
2021/04/27 05:18:06;;;;;;;1999.90;999.90;;;;;;;5.25;69.57;-18050.09;4961937;29;21060;-29
2021/04/27 05:20:54;;;;;;;1999.90;999.90;;;;;;;5.37;69.19;-18053.44;4962190;29;20561;-29
2021/04/27 05:23:40;;;;;;;1999.90;999.90;;;;;;;5.33;68.24;-18052.38;4961510;29;20874;-29
2021/04/27 05:26:26;;;;;;;1999.90;999.90;;;;;;;5.58;67.84;-18058.94;4951526;29;20540;-29
2021/04/27 05:29:21;;;;;;;1999.90;999.90;;;;;;;5.61;67.38;-18059.63;4942169;29;20592;-30
2021/04/27 05:32:07;;;;;;;1999.90;999.90;;;;;;;5.74;67.03;-18063.25;4945136;29;20252;-29
2021/04/27 05:34:53;;;;;;;1999.90;999.90;;;;;;;5.86;67.41;-18066.31;4945610;29;20449;-29
2021/04/27 05:37:40;;;;;;;1999.90;999.90;;;;;;;5.97;65.82;-18069.16;4942673;29;20200;-29
2021/04/27 05:40:30;;;;;;;1999.90;999.90;;;;;;;6.20;65.59;-18075.44;4942714;29;20224;-30
2021/04/27 05:43:16;;;;;;;1999.90;999.90;;;;;;;6.70;62.93;-18088.47;4942072;29;20237;-33
2021/04/27 05:46:02;;;;;;;1999.90;999.90;;;;;;;7.10;60.56;-18099.19;4941247;29;20566;-36
2021/04/27 05:48:48;;;;;;;1999.90;999.90;;;;;;;7.79;59.20;-18117.41;4940677;29;20208;-34
2021/04/27 05:51:40;;;;;;;1999.90;999.90;;;;;;;7.57;57.16;-18111.53;4941132;29;20245;-34
2021/04/27 05:54:26;;;;;;;1999.90;999.90;;;;;;;7.86;57.92;-18119.28;4940717;29;20248;-35
2021/04/27 05:57:11;;;;;;;1999.90;999.90;;;;;;;7.80;55.96;-18117.56;4940613;29;20723;-37
2021/04/27 06:00:05;;;;;;;1999.90;999.90;;;;;;;7.92;55.77;-18120.91;4940790;29;20208;-36
2021/04/27 06:02:53;;;;;;;1999.90;999.90;;;;;;;8.10;54.31;-18125.59;4940705;29;20632;-36
2021/04/27 06:05:39;;;;;;;1999.90;999.90;;;;;;;8.44;53.34;-18134.44;4943375;29;20372;-32
2021/04/27 06:08:29;;;;;;;1999.90;999.90;;;;;;;8.20;52.25;-18128.13;4959880;29;20758;-33
2021/04/27 06:11:16;;;;;;;1999.90;999.90;;;;;;;8.49;51.77;-18135.91;4960172;29;20206;-35
2021/04/27 06:14:09;;;;;;;1999.90;999.90;;;;;;;8.59;50.75;-18138.59;4959618;29;20206;-35
2021/04/27 06:16:58;;;;;;;1999.90;999.90;;;;;;;9.00;50.52;-18149.28;4959790;29;20295;-34
2021/04/27 06:19:44;;;;;;;1999.90;999.90;;;;;;;8.62;50.09;-18139.25;4959617;29;20284;-37
2021/04/27 06:22:30;;;;;;;1999.90;999.90;;;;;;;8.57;51.00;-18137.91;4958930;29;20235;-34
2021/04/27 06:25:18;;;;;;;1999.90;999.90;;;;;;;9.19;48.70;-18154.25;4940063;29;20216;-36
2021/04/27 06:28:06;;;;;;;1999.90;999.90;;;;;;;9.13;48.04;-18152.78;4940133;29;20204;-37
2021/04/27 06:30:52;;;;;;;1999.90;999.90;;;;;;;9.44;47.82;-18160.81;4940452;29;20279;-37
2021/04/27 06:33:38;;;;;;;1999.90;999.90;;;;;;;9.12;48.26;-18152.50;4940157;29;20201;-37
2021/04/27 06:36:25;;;;;;;1999.90;999.90;;;;;;;9.26;47.03;-18156.13;4939950;29;20207;-38
2021/04/27 06:39:13;;;;;;;1999.90;999.90;;;;;;;8.95;46.92;-18147.97;4955858;29;20203;-34
2021/04/27 06:42:02;;;;;;;1999.90;999.90;;;;;;;9.30;46.68;-18157.34;4959150;29;20506;-36
2021/04/27 06:44:48;;;;;;;1999.90;999.90;;;;;;;9.29;46.57;-18157.06;4958327;29;20278;-35
2021/04/27 06:47:34;;;;;;;1999.90;999.90;;;;;;;9.22;47.67;-18155.19;4958846;29;20211;-33
2021/04/27 06:50:21;;;;;;;1999.90;999.90;;;;;;;9.19;46.47;-18154.38;4958895;29;20206;-35
2021/04/27 06:53:17;;;;;;;1999.90;999.90;;;;;;;9.48;45.71;-18161.88;4958337;29;20243;-34
2021/04/27 06:56:04;;;;;;;1999.90;999.90;;;;;;;9.89;45.09;-18172.84;4958929;29;20203;-36
2021/04/27 06:58:50;;;;;;;1999.90;999.90;;;;;;;9.22;47.02;-18155.06;4958083;29;20204;-38
2021/04/27 07:01:38;;;;;;;1999.90;999.90;;;;;;;9.92;44.06;-18173.66;4958743;29;20681;-39
2021/04/27 07:04:24;;;;;;;1999.90;999.90;;;;;;;10.05;44.95;-18176.88;4955884;29;20203;-37
2021/04/27 07:07:10;;;;;;;1999.90;999.90;;;;;;;10.53;44.39;-18189.72;4939171;29;20440;-33
2021/04/27 07:09:58;;;;;;;1999.90;999.90;;;;;;;11.01;43.08;-18202.28;4938832;29;20486;-35
2021/04/27 07:12:46;;;;;;;1999.90;999.90;;;;;;;10.31;43.53;-18183.81;4938671;29;20631;-34
2021/04/27 07:15:32;;;;;;;1999.90;999.90;;;;;;;9.82;43.90;-18170.84;4938690;29;20208;-37
2021/04/27 07:18:20;;;;;;;1999.90;999.90;;;;;;;9.86;43.80;-18172.03;4938925;29;20272;-35
2021/04/27 07:21:06;;;;;;;1999.90;999.90;;;;;;;9.73;43.91;-18168.56;4939095;29;20200;-38
2021/04/27 07:23:54;;;;;;;1999.90;999.90;;;;;;;10.31;43.45;-18183.81;4939117;29;20272;-32
2021/04/27 07:26:45;;;;;;;1999.90;999.90;;;;;;;10.93;42.57;-18200.13;4939009;29;20264;-35
2021/04/27 07:29:31;;;;;;;1999.90;999.90;;;;;;;10.37;42.49;-18185.28;4938848;29;20619;-37
2021/04/27 07:32:20;;;;;;;1999.90;999.90;;;;;;;10.99;41.96;-18201.75;4938890;29;20293;-33
2021/04/27 07:35:12;;;;;;;1999.90;999.90;;;;;;;10.98;41.19;-18201.47;4939222;29;20260;-35
2021/04/27 07:38:04;;;;;;;1999.90;999.90;;;;;;;11.01;41.27;-18202.41;4938573;29;20204;-34
2021/04/27 07:40:55;;;;;;;1999.90;999.90;;;;;;;10.75;41.64;-18195.31;4938678;29;20612;-33
2021/04/27 07:43:53;;;;;;;1999.90;999.90;;;;;;;10.92;41.41;-18199.88;4939024;29;20197;-33
2021/04/27 07:46:43;;;;;;;1999.90;999.90;;;;;;;11.46;40.78;-18214.16;4938601;29;20205;-37
2021/04/27 07:49:31;;;;;;;1999.90;999.90;;;;;;;10.77;41.60;-18195.84;4938853;29;20213;-36
2021/04/27 07:52:18;;;;;;;1999.90;999.90;;;;;;;11.12;40.04;-18205.22;4938556;29;20201;-32
2021/04/27 07:55:08;;;;;;;1999.90;999.90;;;;;;;12.02;39.39;-18228.88;4938656;29;20388;-35
2021/04/27 07:57:54;;;;;;;1999.90;999.90;;;;;;;11.30;40.43;-18210.03;4938157;29;20462;-35
2021/04/27 08:00:45;;;;;;;1999.90;999.90;;;;;;;11.57;39.13;-18216.97;4938790;29;20200;-33
2021/04/27 08:03:31;;;;;;;1999.90;999.90;;;;;;;11.44;38.63;-18213.50;4938928;29;20240;-36
2021/04/27 08:06:18;;;;;;;1999.90;999.90;;;;;;;11.19;38.78;-18206.94;4938336;29;20237;-34
2021/04/27 08:09:05;;;;;;;1999.90;999.90;;;;;;;11.94;38.65;-18226.72;4937935;29;20210;-37
2021/04/27 08:11:51;;;;;;;1999.90;999.90;;;;;;;12.00;38.43;-18228.31;4938756;29;20218;-36
2021/04/27 08:14:37;;;;;;;1999.90;999.90;;;;;;;11.63;38.65;-18218.56;4938584;29;20251;-34
2021/04/27 08:17:23;;;;;;;1999.90;999.90;;;;;;;11.79;37.84;-18222.84;4938622;29;20632;-34
2021/04/27 08:20:14;;;;;;;1999.90;999.90;;;;;;;12.69;37.18;-18246.63;4938883;29;20467;-33
2021/04/27 08:23:03;;;;;;;1999.90;999.90;;;;;;;11.85;37.57;-18224.31;4938267;29;20245;-36
2021/04/27 08:26:14;;;;;;;1999.90;999.90;;;;;;;12.59;36.65;-18243.81;4938879;29;20206;-35
2021/04/27 08:29:04;;;;;;;1999.90;999.90;;;;;;;12.27;36.34;-18235.41;4938608;29;20206;-38
2021/04/27 08:32:11;;;;;;;1999.90;999.90;;;;;;;12.39;36.03;-18238.59;4942233;29;20277;-34
2021/04/27 08:34:57;;;;;;;1999.90;999.90;;;;;;;11.85;36.50;-18224.31;4941448;29;20620;-32
2021/04/27 08:37:44;;;;;;;1999.90;999.90;;;;;;;12.31;35.54;-18236.59;4941993;29;20206;-35
2021/04/27 08:40:31;;;;;;;1999.90;999.90;;;;;;;12.22;35.80;-18234.06;4959727;29;20361;-33
2021/04/27 08:43:18;;;;;;;1999.90;999.90;;;;;;;12.04;36.96;-18229.53;4960990;29;20573;-35
2021/04/27 08:46:18;;;;;;;1999.90;999.90;;;;;;;12.17;37.68;-18232.88;4961293;29;20246;-38
2021/04/27 08:49:04;;;;;;;1999.90;999.90;;;;;;;11.57;35.69;-18217.09;4960863;29;20206;-36
2021/04/27 08:51:52;;;;;;;1999.90;999.90;;;;;;;11.73;35.69;-18221.25;4961208;29;20227;-37
2021/04/27 08:54:50;;;;;;;1999.90;999.90;;;;;;;11.97;35.15;-18227.53;4961006;29;20241;-37
2021/04/27 08:57:36;;;;;;;1999.90;999.90;;;;;;;12.56;34.95;-18243.00;4960292;29;20208;-32
2021/04/27 09:00:26;;;;;;;1999.90;999.90;;;;;;;12.28;36.10;-18235.81;4960711;29;20204;-38
2021/04/27 09:03:16;;;;;;;1999.90;999.90;;;;;;;12.55;35.67;-18242.88;4960693;29;20507;-35
2021/04/27 09:06:12;;;;;;;1999.90;999.90;;;;;;;12.47;35.96;-18240.75;4960509;29;20215;-37
2021/04/27 09:08:58;;;;;;;1999.90;999.90;;;;;;;12.07;35.81;-18230.34;4960503;29;20219;-37
2021/04/27 09:11:47;;;;;;;1999.90;999.90;;;;;;;12.65;35.74;-18245.41;4960150;29;20201;-34
2021/04/27 09:14:35;;;;;;;1999.90;999.90;;;;;;;12.72;35.23;-18247.28;4960223;29;20218;-35
2021/04/27 09:17:28;;;;;;;1999.90;999.90;;;;;;;13.16;35.36;-18258.78;4960760;29;20301;-37
2021/04/27 09:20:14;;;;;;;1999.90;999.90;;;;;;;12.51;34.88;-18241.81;4960935;29;20708;-35
2021/04/27 09:23:09;;;;;;;1999.90;999.90;;;;;;;12.86;35.82;-18250.88;4950949;29;20723;-37
2021/04/27 09:26:10;;;;;;;1999.90;999.90;;;;;;;12.12;36.06;-18231.41;4941180;29;20212;-36
2021/04/27 09:28:57;;;;;;;1999.90;999.90;;;;;;;12.71;34.73;-18247.16;4958041;29;20646;-38
2021/04/27 09:31:47;;;;;;;1999.90;999.90;;;;;;;13.39;33.67;-18265.03;4960277;29;20359;-38
2021/04/27 09:34:35;;;;;;;1999.90;999.90;;;;;;;12.93;33.97;-18252.75;4959786;29;20211;-36
2021/04/27 09:37:23;;;;;;;1999.90;999.90;;;;;;;13.32;33.82;-18263.16;4960446;29;20231;-38
2021/04/27 09:40:23;;;;;;;1999.90;999.90;;;;;;;13.53;33.75;-18268.63;4960100;29;20223;-35
2021/04/27 09:43:09;;;;;;;1999.90;999.90;;;;;;;13.96;32.91;-18279.97;4959953;29;20224;-35
2021/04/27 09:46:01;;;;;;;1999.90;999.90;;;;;;;13.43;33.72;-18265.97;4960282;29;20212;-34
2021/04/27 09:48:52;;;;;;;1999.90;999.90;;;;;;;13.59;34.68;-18270.09;4959768;29;20207;-33
2021/04/27 09:52:11;;;;;;;1999.90;999.90;;;;;;;12.80;35.38;-18249.41;4960112;29;20203;-34
2021/04/27 09:55:12;;;;;;;1999.90;999.90;;;;;;;13.57;35.03;-18269.56;4959201;29;20235;-35
2021/04/27 09:57:58;;;;;;;1999.90;999.90;;;;;;;12.50;35.11;-18241.41;4960180;29;20360;-36
2021/04/27 10:00:48;;;;;;;1999.90;999.90;;;;;;;14.70;34.31;-18299.31;4960154;29;20204;-34
2021/04/27 10:03:38;;;;;;;1999.90;999.90;;;;;;;14.33;33.46;-18289.56;4959365;29;20224;-33
2021/04/27 10:06:24;;;;;;;1999.90;999.90;;;;;;;14.22;33.40;-18286.63;4959541;29;20204;-37
2021/04/27 10:09:14;;;;;;;1999.90;999.90;;;;;;;13.32;35.03;-18263.16;4959479;29;20208;-34
2021/04/27 10:12:01;;;;;;;1999.90;999.90;;;;;;;13.95;34.19;-18279.72;4958981;29;20259;-34
2021/04/27 10:14:49;;;;;;;1999.90;999.90;;;;;;;15.34;32.97;-18316.09;4959085;29;20493;-36
2021/04/27 10:17:35;;;;;;;1999.90;999.90;;;;;;;13.68;33.47;-18272.50;4959419;29;20492;-34
2021/04/27 10:20:21;;;;;;;1999.90;999.90;;;;;;;13.10;33.37;-18257.44;4959330;29;20610;-33
2021/04/27 10:23:12;;;;;;;1999.90;999.90;;;;;;;13.96;33.61;-18279.84;4958536;29;20231;-32
2021/04/27 10:25:59;;;;;;;1999.90;999.90;;;;;;;14.42;33.05;-18291.97;4959255;29;20220;-35
2021/04/27 10:29:07;;;;;;;1999.90;999.90;;;;;;;14.91;31.96;-18304.75;4958982;29;20211;-34
2021/04/27 10:32:20;;;;;;;1999.90;999.90;;;;;;;14.56;32.01;-18295.69;4958281;29;20634;-34
2021/04/27 10:35:13;;;;;;;1999.90;999.90;;;;;;;14.17;32.89;-18285.31;4959063;29;20223;-37
2021/04/27 10:38:04;;;;;;;1999.90;999.90;;;;;;;13.83;33.24;-18276.50;4944761;29;20217;-33
2021/04/27 10:40:53;;;;;;;1999.90;999.90;;;;;;;13.98;32.95;-18280.50;4940300;29;20208;-33
2021/04/27 10:43:52;;;;;;;1999.90;999.90;;;;;;;13.70;32.57;-18273.16;4957432;29;20235;-32
2021/04/27 10:46:50;;;;;;;1999.90;999.90;;;;;;;14.58;32.25;-18296.25;4940837;29;20234;-35
2021/04/27 10:49:42;;;;;;;1999.90;999.90;;;;;;;14.59;32.49;-18296.50;4950096;29;20316;-37
2021/04/27 10:52:32;;;;;;;1999.90;999.90;;;;;;;14.83;32.02;-18302.75;4939207;29;20201;-35
2021/04/27 10:55:27;;;;;;;1999.90;999.90;;;;;;;13.49;33.21;-18267.44;4943702;29;20337;-34
2021/04/27 10:58:45;;;;;;;1999.90;999.90;;;;;;;14.37;32.29;-18290.78;4944119;29;20203;-38
2021/04/27 11:01:38;;;;;;;1999.90;999.90;;;;;;;14.63;33.36;-18297.44;4945531;29;20242;-36
2021/04/27 11:04:30;;;;;;;1999.90;999.90;;;;;;;13.80;31.76;-18275.84;4943847;29;20304;-36
2021/04/27 11:07:38;;;;;;;1999.90;999.90;;;;;;;13.95;30.87;-18279.72;4957991;29;20204;-39
2021/04/27 11:10:27;;;;;;;1999.90;999.90;;;;;;;14.33;31.99;-18289.69;4938939;29;20217;-37
2021/04/27 11:13:19;;;;;;;1999.90;999.90;;;;;;;14.11;32.16;-18283.97;4945003;29;20273;-35
2021/04/27 11:16:23;;;;;;;1999.90;999.90;;;;;;;14.77;31.42;-18301.31;4938970;29;20375;-38
2021/04/27 11:19:29;;;;;;;1999.90;999.90;;;;;;;14.13;32.59;-18284.50;4948408;29;20207;-36
2021/04/27 11:22:17;;;;;;;1999.90;999.90;;;;;;;13.98;32.88;-18280.38;4957142;29;20364;-33
2021/04/27 11:25:08;;;;;;;1999.90;999.90;;;;;;;14.37;32.49;-18290.63;4942199;29;20209;-35
2021/04/27 11:27:54;;;;;;;1999.90;999.90;;;;;;;14.54;32.85;-18295.16;4939086;29;20209;-32
2021/04/27 11:30:40;;;;;;;1999.90;999.90;;;;;;;15.61;31.70;-18323.13;4940117;29;20224;-37
2021/04/27 11:33:28;;;;;;;1999.90;999.90;;;;;;;14.99;32.90;-18306.88;4939215;29;20639;-37
2021/04/27 11:36:14;;;;;;;1999.90;999.90;;;;;;;14.71;32.18;-18299.69;4938901;29;20208;-38
2021/04/27 11:39:09;;;;;;;1999.90;999.90;;;;;;;14.74;31.74;-18300.50;4944790;29;20214;-38
2021/04/27 11:41:58;;;;;;;1999.90;999.90;;;;;;;15.68;30.66;-18325.00;4950479;29;20264;-35
2021/04/27 11:44:57;;;;;;;1999.90;999.90;;;;;;;14.81;31.15;-18302.38;4944827;29;20209;-37
2021/04/27 11:47:48;;;;;;;1999.90;999.90;;;;;;;14.83;31.75;-18302.91;4943612;29;20205;-38
2021/04/27 11:50:51;;;;;;;1999.90;999.90;;;;;;;14.33;32.03;-18289.56;4944450;29;20212;-36
2021/04/27 11:54:02;;;;;;;1999.90;999.90;;;;;;;14.96;31.67;-18306.09;4949539;29;20233;-36
2021/04/27 11:56:55;;;;;;;1999.90;999.90;;;;;;;14.87;32.01;-18303.69;4939705;29;20212;-33
2021/04/27 11:59:45;;;;;;;1999.90;999.90;;;;;;;14.19;31.97;-18285.97;4958012;29;20294;-34
2021/04/27 12:02:41;;;;;;;1999.90;999.90;;;;;;;14.09;32.32;-18283.44;4955811;29;20302;-35
2021/04/27 12:05:38;;;;;;;1999.90;999.90;;;;;;;13.53;33.23;-18268.63;4960620;28;20206;-37
2021/04/27 12:08:32;;;;;;;1999.90;999.90;;;;;;;15.48;32.54;-18319.81;4961959;29;20271;-35
2021/04/27 12:11:21;;;;;;;1999.90;999.90;;;;;;;14.75;31.66;-18300.63;4961250;29;20311;-35
2021/04/27 12:14:17;;;;;;;1999.90;999.90;;;;;;;14.46;31.52;-18293.16;4961283;29;20224;-33
2021/04/27 12:17:06;;;;;;;1999.90;999.90;;;;;;;14.24;31.28;-18287.31;4961388;29;20203;-38
2021/04/27 12:20:10;;;;;;;1999.90;999.90;;;;;;;14.83;31.02;-18302.91;4961795;29;20216;-36
2021/04/27 12:22:56;;;;;;;1999.90;999.90;;;;;;;14.75;31.83;-18300.63;4960784;29;20327;-37
2021/04/27 12:25:43;;;;;;;1999.90;999.90;;;;;;;15.25;32.36;-18313.69;4960567;29;20196;-35
2021/04/27 12:28:29;;;;;;;1999.90;999.90;;;;;;;14.36;32.85;-18290.38;4950246;29;20223;-37
2021/04/27 12:31:16;;;;;;;1999.90;999.90;;;;;;;15.62;31.56;-18323.53;4945910;29;20213;-36